Balaguer, Spain
Current Conditions -  °F | °C
As of 3:00 AM on Tuesday 21 Oct 2014 (Local Time) from LERS Reporting Station
Clear Clear  
Wind Chill: 59°   Ceiling: Unl
Heat Index: 59°   Visibility: 4mi
Dew Point: 57°   Wind: 2mph
Humidity: 94%   Direction: NA
Pressure: 30.12"   Gusts: NA
Location:  41.79°N, 0.81°E
Report Text: LERS 210100Z AUTO VRB02KT 7000 // NSC 15/14 Q1020
Loading
Personal Weather Stations






























Interactive Weather Map
Tropical Storm Tracking
New forecast layout! Learn more

10-Day Weather Forecast

Advertisements
Track Severe Weather on mobile